Time,TemperatureF,DewpointF,PressureIn,WindDirection,WindDirectionDegrees,WindSpeedMPH,WindSpeedGustMPH,Humidity,HourlyPrecipIn,Conditions,Clouds,dailyrainin,SoftwareType,DateUTC
2013-07-22 00:04:00,72.5,70.7,29.91,SSW,205,0.0,0.0,94,0.00,,,0.00,meteobridge,2013-07-22 04:04:00,
2013-07-22 00:09:00,72.3,70.5,29.91,SSW,205,0.0,0.0,94,0.00,,,0.00,meteobridge,2013-07-22 04:09:00,
2013-07-22 00:14:00,72.1,70.3,29.91,SSW,205,0.0,0.0,94,0.00,,,0.00,meteobridge,2013-07-22 04:14:00,
2013-07-22 00:20:00,72.0,70.5,29.91,SSW,205,0.0,0.0,95,0.00,,,0.00,meteobridge,2013-07-22 04:20:00,
2013-07-22 00:25:00,72.0,70.5,29.91,SSW,205,0.0,0.0,95,0.00,,,0.00,meteobridge,2013-07-22 04:25:00,
2013-07-22 00:30:00,72.0,70.5,29.91,SSW,205,0.0,0.0,95,0.00,,,0.00,meteobridge,2013-07-22 04:30:00,
2013-07-22 00:35:00,71.8,70.3,29.91,SSW,205,0.0,0.0,95,0.00,,,0.00,meteobridge,2013-07-22 04:35:00,
2013-07-22 00:40:00,71.8,70.3,29.91,SSW,205,0.0,0.0,95,0.00,,,0.00,meteobridge,2013-07-22 04:40:00,
2013-07-22 00:45:00,71.8,70.3,29.91,SSW,205,0.0,0.0,95,0.00,,,0.00,meteobridge,2013-07-22 04:45:00,
2013-07-22 00:51:00,71.8,70.5,29.91,SSW,205,0.0,0.0,96,0.00,,,0.00,meteobridge,2013-07-22 04:51:00,
2013-07-22 00:56:00,71.8,70.5,29.91,SSW,205,0.0,0.0,96,0.00,,,0.00,meteobridge,2013-07-22 04:56:00,
2013-07-22 01:01:00,72.0,70.7,29.90,SSW,205,0.0,0.0,96,0.00,,,0.00,meteobridge,2013-07-22 05:01:00,
2013-07-22 01:06:00,72.0,70.7,29.90,SSW,205,0.0,0.0,96,0.00,,,0.00,meteobridge,2013-07-22 05:06:00,
2013-07-22 01:11:00,72.0,70.7,29.90,SSW,205,0.0,0.0,96,0.00,,,0.00,meteobridge,2013-07-22 05:11:00,
2013-07-22 01:16:00,72.0,70.7,29.90,SSW,205,0.0,0.0,96,0.00,,,0.00,meteobridge,2013-07-22 05:16:00,
2013-07-22 01:22:00,72.0,70.7,29.90,SSW,205,0.0,0.0,96,0.00,,,0.00,meteobridge,2013-07-22 05:22:00,
2013-07-22 01:27:00,71.8,70.5,29.90,SSW,205,0.0,0.0,96,0.00,,,0.00,meteobridge,2013-07-22 05:27:00,
2013-07-22 01:32:00,71.6,70.3,29.89,SSW,205,0.0,0.0,96,0.00,,,0.00,meteobridge,2013-07-22 05:32:00,
2013-07-22 01:37:00,71.2,70.0,29.89,SSW,205,0.0,0.0,96,0.00,,,0.00,meteobridge,2013-07-22 05:37:00,
2013-07-22 01:42:00,71.1,69.8,29.89,SSW,205,0.0,0.0,96,0.00,,,0.00,meteobridge,2013-07-22 05:42:00,
2013-07-22 01:48:00,70.9,70.0,29.88,SSW,205,0.0,0.0,97,0.00,,,0.00,meteobridge,2013-07-22 05:48:00,
2013-07-22 01:53:00,70.9,70.0,29.88,SSW,205,0.0,0.0,97,0.00,,,0.00,meteobridge,2013-07-22 05:53:00,
2013-07-22 01:58:00,71.1,70.2,29.88,SSW,205,0.0,0.0,97,0.00,,,0.00,meteobridge,2013-07-22 05:58:00,
2013-07-22 02:03:00,71.2,70.3,29.88,SSW,205,0.0,0.0,97,0.00,,,0.00,meteobridge,2013-07-22 06:03:00,
2013-07-22 02:08:00,71.1,70.2,29.88,SSW,205,0.0,0.0,97,0.00,,,0.00,meteobridge,2013-07-22 06:08:00,
2013-07-22 02:13:00,71.2,70.3,29.88,SSW,205,0.0,0.0,97,0.00,,,0.00,meteobridge,2013-07-22 06:13:00,
2013-07-22 02:19:00,71.2,70.3,29.87,SSW,205,0.0,0.0,97,0.00,,,0.00,meteobridge,2013-07-22 06:19:00,
2013-07-22 02:24:00,71.2,70.3,29.87,SSW,205,0.0,0.0,97,0.00,,,0.00,meteobridge,2013-07-22 06:24:00,
2013-07-22 02:29:00,71.2,70.3,29.87,SSW,205,0.0,0.0,97,0.00,,,0.00,meteobridge,2013-07-22 06:29:00,
2013-07-22 02:34:00,71.2,70.3,29.87,SSW,205,0.0,0.0,97,0.00,,,0.00,meteobridge,2013-07-22 06:34:00,
2013-07-22 02:39:00,71.2,70.3,29.87,SSW,205,0.0,0.0,97,0.00,,,0.00,meteobridge,2013-07-22 06:39:00,
2013-07-22 02:44:00,71.1,70.2,29.86,SSW,205,0.0,0.0,97,0.00,,,0.00,meteobridge,2013-07-22 06:44:00,
2013-07-22 02:49:00,70.9,70.3,29.86,SSW,205,0.0,0.0,98,0.00,,,0.00,meteobridge,2013-07-22 06:49:00,
2013-07-22 02:55:00,70.9,70.3,29.86,SSW,205,0.0,0.0,98,0.00,,,0.00,meteobridge,2013-07-22 06:55:00,
2013-07-22 03:00:00,70.9,70.3,29.86,SSW,205,0.0,0.0,98,0.00,,,0.00,meteobridge,2013-07-22 07:00:00,
2013-07-22 03:05:00,71.1,70.5,29.86,SSW,205,0.0,0.0,98,0.00,,,0.00,meteobridge,2013-07-22 07:05:00,
2013-07-22 03:10:00,71.1,70.5,29.86,SSW,205,0.0,0.0,98,0.00,,,0.00,meteobridge,2013-07-22 07:10:00,
2013-07-22 03:15:00,71.2,70.7,29.85,SSW,205,0.0,0.0,98,0.00,,,0.00,meteobridge,2013-07-22 07:15:00,
2013-07-22 03:20:00,71.2,70.7,29.85,SSW,205,0.0,0.0,98,0.00,,,0.00,meteobridge,2013-07-22 07:20:00,
2013-07-22 03:25:00,71.2,70.7,29.85,SSW,205,0.0,0.0,98,0.00,,,0.00,meteobridge,2013-07-22 07:25:00,
2013-07-22 03:31:00,71.1,70.5,29.85,SSW,205,0.0,0.0,98,0.00,,,0.00,meteobridge,2013-07-22 07:31:00,
2013-07-22 03:36:00,71.1,70.5,29.85,SSW,205,0.0,0.0,98,0.00,,,0.00,meteobridge,2013-07-22 07:36:00,
2013-07-22 03:41:00,71.1,70.5,29.85,SSW,205,0.0,0.0,98,0.00,,,0.00,meteobridge,2013-07-22 07:41:00,
2013-07-22 03:46:00,71.1,70.5,29.85,SSW,205,0.0,0.0,98,0.00,,,0.00,meteobridge,2013-07-22 07:46:00,
2013-07-22 03:52:00,71.1,70.5,29.85,SSW,205,0.0,0.0,98,0.00,,,0.00,meteobridge,2013-07-22 07:52:00,
2013-07-22 03:57:00,71.1,70.5,29.85,SSW,205,0.0,0.0,98,0.00,,,0.00,meteobridge,2013-07-22 07:57:00,
2013-07-22 04:02:00,71.1,70.5,29.85,SSW,205,0.0,0.0,98,0.00,,,0.00,meteobridge,2013-07-22 08:02:00,
2013-07-22 04:07:00,71.1,70.5,29.85,SSW,205,0.0,0.0,98,0.00,,,0.00,meteobridge,2013-07-22 08:07:00,
2013-07-22 04:12:00,71.1,70.5,29.85,SSW,205,0.0,0.0,98,0.00,,,0.00,meteobridge,2013-07-22 08:12:00,
2013-07-22 04:17:00,71.1,70.5,29.85,SSW,205,0.0,0.0,98,0.00,,,0.00,meteobridge,2013-07-22 08:17:00,
2013-07-22 04:23:00,71.1,70.5,29.85,SSW,205,0.0,0.0,98,0.00,,,0.00,meteobridge,2013-07-22 08:23:00,
2013-07-22 04:28:00,71.1,70.5,29.85,SSW,205,0.0,0.0,98,0.00,,,0.00,meteobridge,2013-07-22 08:28:00,
2013-07-22 04:33:00,71.1,70.5,29.85,SSW,205,0.0,0.0,98,0.00,,,0.00,meteobridge,2013-07-22 08:33:00,
2013-07-22 04:38:00,71.1,70.5,29.85,SSW,205,0.0,0.0,98,0.00,,,0.00,meteobridge,2013-07-22 08:38:00,
2013-07-22 04:43:00,71.1,70.5,29.85,SSW,205,0.0,0.0,98,0.00,,,0.00,meteobridge,2013-07-22 08:43:00,
2013-07-22 04:49:00,71.1,70.5,29.84,SSW,205,0.0,0.0,98,0.00,,,0.00,meteobridge,2013-07-22 08:49:00,
2013-07-22 04:54:00,71.1,70.5,29.84,SSW,205,0.0,0.0,98,0.00,,,0.00,meteobridge,2013-07-22 08:54:00,
2013-07-22 04:59:00,71.1,70.5,29.84,SSW,205,0.0,0.0,98,0.00,,,0.00,meteobridge,2013-07-22 08:59:00,
2013-07-22 05:04:00,71.1,70.5,29.84,SSW,205,0.0,0.0,98,0.00,,,0.00,meteobridge,2013-07-22 09:04:00,
2013-07-22 05:09:00,71.1,70.5,29.84,SSW,205,0.0,0.0,98,0.00,,,0.00,meteobridge,2013-07-22 09:09:00,
2013-07-22 05:14:00,71.1,70.5,29.84,SSW,205,0.0,0.0,98,0.00,,,0.00,meteobridge,2013-07-22 09:14:00,
2013-07-22 05:20:00,71.1,70.5,29.84,SSW,205,0.0,0.0,98,0.00,,,0.00,meteobridge,2013-07-22 09:20:00,
2013-07-22 05:25:00,71.1,70.5,29.84,SSW,205,0.0,0.0,98,0.00,,,0.00,meteobridge,2013-07-22 09:25:00,
2013-07-22 05:30:00,71.1,70.5,29.83,SSW,205,0.0,0.0,98,0.00,,,0.00,meteobridge,2013-07-22 09:30:00,
2013-07-22 05:35:00,71.1,70.5,29.83,SSW,205,0.0,0.0,98,0.00,,,0.00,meteobridge,2013-07-22 09:35:00,
2013-07-22 05:40:00,71.1,70.5,29.83,SSW,205,0.0,0.0,98,0.00,,,0.00,meteobridge,2013-07-22 09:40:00,
2013-07-22 05:45:00,71.1,70.5,29.83,SSW,205,0.0,0.0,98,0.00,,,0.00,meteobridge,2013-07-22 09:45:00,
2013-07-22 05:51:00,71.1,70.5,29.83,SSW,205,0.0,0.0,98,0.00,,,0.00,meteobridge,2013-07-22 09:51:00,
2013-07-22 05:56:00,71.1,70.5,29.83,SSW,205,0.0,0.0,98,0.00,,,0.00,meteobridge,2013-07-22 09:56:00,
2013-07-22 06:01:00,71.1,70.5,29.83,SSW,205,0.0,0.0,98,0.00,,,0.00,meteobridge,2013-07-22 10:01:00,
2013-07-22 06:06:00,70.9,70.3,29.83,SSW,205,0.0,0.0,98,0.00,,,0.00,meteobridge,2013-07-22 10:06:00,
2013-07-22 06:11:00,70.9,70.3,29.83,SSW,205,0.0,0.0,98,0.00,,,0.00,meteobridge,2013-07-22 10:11:00,
2013-07-22 06:17:00,70.9,70.3,29.84,SSW,205,0.0,0.0,98,0.00,,,0.00,meteobridge,2013-07-22 10:17:00,
2013-07-22 06:22:00,70.9,70.3,29.84,SSW,205,0.0,0.0,98,0.00,,,0.00,meteobridge,2013-07-22 10:22:00,
2013-07-22 06:27:00,70.9,70.3,29.84,SSW,205,0.0,0.0,98,0.00,,,0.00,meteobridge,2013-07-22 10:27:00,
2013-07-22 06:32:00,70.9,70.3,29.85,SSW,205,0.0,0.0,98,0.00,,,0.00,meteobridge,2013-07-22 10:32:00,
2013-07-22 06:37:00,70.9,70.3,29.85,SSW,205,0.0,0.0,98,0.00,,,0.00,meteobridge,2013-07-22 10:37:00,
2013-07-22 06:42:00,70.9,70.3,29.85,SSW,205,0.0,0.0,98,0.00,,,0.00,meteobridge,2013-07-22 10:42:00,
2013-07-22 06:48:00,70.9,70.3,29.85,SSW,205,0.0,0.0,98,0.00,,,0.00,meteobridge,2013-07-22 10:48:00,
2013-07-22 06:53:00,70.9,70.3,29.85,SSW,205,0.9,2.0,98,0.00,,,0.00,meteobridge,2013-07-22 10:53:00,
2013-07-22 06:58:00,70.9,70.3,29.85,SSW,205,0.0,0.0,98,0.00,,,0.00,meteobridge,2013-07-22 10:58:00,
2013-07-22 07:03:00,71.1,70.5,29.85,SSW,205,0.0,0.0,98,0.00,,,0.00,meteobridge,2013-07-22 11:03:00,
2013-07-22 07:08:00,71.1,70.5,29.85,SSW,205,0.0,0.0,98,0.00,,,0.00,meteobridge,2013-07-22 11:08:00,
2013-07-22 07:13:00,71.1,70.5,29.85,SSW,205,0.0,0.0,98,0.00,,,0.00,meteobridge,2013-07-22 11:13:00,
2013-07-22 07:19:00,71.1,70.5,29.85,SSW,205,0.0,0.0,98,0.00,,,0.00,meteobridge,2013-07-22 11:19:00,
2013-07-22 07:24:00,71.2,70.7,29.85,SSW,205,0.0,0.0,98,0.00,,,0.00,meteobridge,2013-07-22 11:24:00,
2013-07-22 07:29:00,71.2,70.7,29.85,SSW,205,0.0,0.0,98,0.00,,,0.00,meteobridge,2013-07-22 11:29:00,
2013-07-22 07:34:00,71.2,70.7,29.85,SSW,205,0.0,0.9,98,0.00,,,0.00,meteobridge,2013-07-22 11:34:00,
2013-07-22 07:39:00,71.2,70.7,29.85,SSW,205,0.0,0.0,98,0.00,,,0.00,meteobridge,2013-07-22 11:39:00,
2013-07-22 07:44:00,71.2,70.7,29.85,SSW,205,0.0,0.0,98,0.00,,,0.00,meteobridge,2013-07-22 11:44:00,
2013-07-22 07:50:00,71.4,70.9,29.85,SSW,205,0.0,0.0,98,0.00,,,0.00,meteobridge,2013-07-22 11:50:00,
2013-07-22 07:55:00,71.6,71.1,29.85,SSW,205,0.0,0.0,98,0.00,,,0.00,meteobridge,2013-07-22 11:55:00,
2013-07-22 08:00:00,71.6,71.1,29.86,SSW,205,0.0,0.0,98,0.00,,,0.00,meteobridge,2013-07-22 12:00:00,
2013-07-22 08:05:00,71.6,71.1,29.86,SSW,205,0.0,0.0,98,0.00,,,0.00,meteobridge,2013-07-22 12:05:00,
2013-07-22 08:10:00,71.6,71.1,29.86,SSW,205,0.9,2.0,98,0.00,,,0.00,meteobridge,2013-07-22 12:10:00,
2013-07-22 08:15:00,71.8,71.2,29.86,SSW,205,0.9,0.9,98,0.00,,,0.00,meteobridge,2013-07-22 12:15:00,
2013-07-22 08:21:00,72.0,71.4,29.86,SSW,205,0.0,0.9,98,0.00,,,0.00,meteobridge,2013-07-22 12:21:00,
2013-07-22 08:26:00,72.1,71.6,29.86,SSE,151,2.9,4.9,98,0.00,,,0.00,meteobridge,2013-07-22 12:26:00,
2013-07-22 08:31:00,72.1,71.2,29.86,SSE,151,0.9,2.9,97,0.00,,,0.00,meteobridge,2013-07-22 12:31:00,
2013-07-22 08:36:00,72.3,71.4,29.86,SSE,152,0.0,0.9,97,0.00,,,0.00,meteobridge,2013-07-22 12:36:00,
2013-07-22 08:41:00,72.5,71.6,29.86,SSE,152,0.0,0.9,97,0.00,,,0.00,meteobridge,2013-07-22 12:41:00,
2013-07-22 08:46:00,72.5,71.6,29.86,SSE,150,0.9,2.9,97,0.00,,,0.00,meteobridge,2013-07-22 12:46:00,
2013-07-22 08:51:00,72.7,71.8,29.86,South,181,0.0,2.9,97,0.00,,,0.00,meteobridge,2013-07-22 12:51:00,
2013-07-22 08:56:00,73.0,71.8,29.86,South,181,0.0,0.0,96,0.00,,,0.00,meteobridge,2013-07-22 12:56:00,
2013-07-22 09:06:00,73.2,71.8,29.86,SW,229,2.9,6.0,95,0.00,,,0.00,meteobridge,2013-07-22 13:06:00,
2013-07-22 09:11:00,73.6,72.1,29.86,SW,216,0.9,2.0,95,0.00,,,0.00,meteobridge,2013-07-22 13:11:00,
2013-07-22 09:17:00,73.9,72.1,29.86,SW,216,0.0,0.9,94,0.00,,,0.00,meteobridge,2013-07-22 13:17:00,
2013-07-22 09:22:00,73.9,71.8,29.86,SW,234,2.0,2.9,93,0.00,,,0.00,meteobridge,2013-07-22 13:22:00,
2013-07-22 09:27:00,74.1,71.6,29.86,South,185,2.9,4.0,92,0.00,,,0.00,meteobridge,2013-07-22 13:27:00,
2013-07-22 09:32:00,74.5,71.6,29.86,South,174,0.9,4.9,91,0.00,,,0.00,meteobridge,2013-07-22 13:32:00,
2013-07-22 09:37:00,74.7,71.6,29.86,South,188,2.0,4.0,90,0.00,,,0.00,meteobridge,2013-07-22 13:37:00,
2013-07-22 09:42:00,75.0,71.6,29.86,SE,136,2.0,6.0,89,0.00,,,0.00,meteobridge,2013-07-22 13:42:00,
2013-07-22 09:47:00,75.4,72.0,29.86,SE,137,0.0,2.0,89,0.00,,,0.00,meteobridge,2013-07-22 13:47:00,
2013-07-22 09:52:00,75.6,71.4,29.86,SSW,203,0.9,2.9,87,0.00,,,0.00,meteobridge,2013-07-22 13:52:00,
2013-07-22 09:57:00,75.9,71.4,29.86,South,174,0.9,0.9,86,0.00,,,0.00,meteobridge,2013-07-22 13:57:00,
2013-07-22 10:02:00,76.3,71.4,29.85,WSW,239,2.0,2.9,85,0.00,,,0.00,meteobridge,2013-07-22 14:02:00,
2013-07-22 10:07:00,76.5,71.2,29.85,SW,217,0.0,0.0,84,0.00,,,0.00,meteobridge,2013-07-22 14:07:00,
2013-07-22 10:12:00,76.8,71.6,29.85,SW,217,0.0,2.0,84,0.00,,,0.00,meteobridge,2013-07-22 14:12:00,
2013-07-22 10:17:00,77.0,71.1,29.85,SSE,150,2.0,6.0,82,0.00,,,0.00,meteobridge,2013-07-22 14:17:00,
2013-07-22 10:22:00,77.4,71.8,29.85,WSW,247,0.0,2.0,83,0.00,,,0.00,meteobridge,2013-07-22 14:22:00,
2013-07-22 10:28:00,77.9,71.6,29.85,WSW,247,0.0,0.0,81,0.00,,,0.00,meteobridge,2013-07-22 14:28:00,
2013-07-22 10:33:00,77.9,71.2,29.85,West,274,0.9,2.0,80,0.00,,,0.00,meteobridge,2013-07-22 14:33:00,
2013-07-22 10:38:00,77.9,71.2,29.85,West,274,0.0,0.9,80,0.00,,,0.00,meteobridge,2013-07-22 14:38:00,
2013-07-22 10:43:00,77.9,71.2,29.85,WSW,246,0.0,0.9,80,0.00,,,0.00,meteobridge,2013-07-22 14:43:00,
2013-07-22 10:49:00,78.1,71.4,29.85,WSW,244,0.0,2.0,80,0.00,,,0.00,meteobridge,2013-07-22 14:49:00,
2013-07-22 10:54:00,78.3,71.6,29.85,East,88,2.0,2.9,80,0.00,,,0.00,meteobridge,2013-07-22 14:54:00,
2013-07-22 10:59:00,78.1,71.1,29.85,SSW,203,0.0,4.9,79,0.00,,,0.00,meteobridge,2013-07-22 14:59:00,
2013-07-22 11:04:00,77.9,70.9,29.85,South,184,0.9,6.9,79,0.00,,,0.00,meteobridge,2013-07-22 15:04:00,
2013-07-22 11:09:00,78.1,71.1,29.85,SSE,152,2.0,2.9,79,0.00,,,0.00,meteobridge,2013-07-22 15:09:00,
2013-07-22 11:14:00,78.1,70.7,29.85,South,176,0.9,6.0,78,0.00,,,0.00,meteobridge,2013-07-22 15:14:00,
2013-07-22 11:19:00,78.3,71.2,29.85,West,277,2.0,2.9,79,0.00,,,0.00,meteobridge,2013-07-22 15:19:00,
2013-07-22 11:24:00,78.6,71.2,29.85,West,277,0.0,0.0,78,0.00,,,0.00,meteobridge,2013-07-22 15:24:00,
2013-07-22 11:29:00,79.0,71.1,29.84,South,181,2.9,4.0,77,0.00,,,0.00,meteobridge,2013-07-22 15:29:00,
2013-07-22 11:34:00,79.3,71.4,29.84,South,182,0.0,2.9,77,0.00,,,0.00,meteobridge,2013-07-22 15:34:00,
2013-07-22 11:39:00,79.5,71.6,29.84,SSE,154,2.0,4.0,77,0.00,,,0.00,meteobridge,2013-07-22 15:39:00,
2013-07-22 11:44:00,79.9,71.6,29.84,SW,224,2.0,2.9,76,0.00,,,0.00,meteobridge,2013-07-22 15:44:00,
2013-07-22 11:49:00,80.4,71.4,29.84,West,270,2.9,4.9,74,0.00,,,0.00,meteobridge,2013-07-22 15:49:00,
2013-07-22 11:54:00,81.0,72.3,29.84,South,176,0.0,0.9,75,0.00,,,0.00,meteobridge,2013-07-22 15:54:00,
2013-07-22 11:59:00,80.8,71.8,29.83,SSE,147,6.0,6.9,74,0.00,,,0.00,meteobridge,2013-07-22 15:59:00,
2013-07-22 12:04:00,80.8,72.1,29.83,SSE,162,0.0,4.0,75,0.00,,,0.00,meteobridge,2013-07-22 16:04:00,
2013-07-22 12:10:00,80.4,71.4,29.83,SSW,210,0.0,6.9,74,0.00,,,0.00,meteobridge,2013-07-22 16:10:00,
2013-07-22 12:15:00,81.0,72.7,29.83,SSE,147,2.9,2.9,76,0.00,,,0.00,meteobridge,2013-07-22 16:15:00,
2013-07-22 12:20:00,81.1,72.1,29.83,SE,128,0.9,4.0,74,0.00,,,0.00,meteobridge,2013-07-22 16:20:00,
2013-07-22 12:25:00,81.3,71.1,29.83,SSE,165,4.9,8.1,71,0.00,,,0.00,meteobridge,2013-07-22 16:25:00,
2013-07-22 12:30:00,81.9,72.0,29.82,SSE,167,6.0,6.0,72,0.00,,,0.00,meteobridge,2013-07-22 16:30:00,
2013-07-22 12:35:00,82.2,72.3,29.82,SW,232,4.0,6.0,72,0.00,,,0.00,meteobridge,2013-07-22 16:35:00,
2013-07-22 12:40:00,82.8,72.0,29.82,SSE,154,2.9,6.0,70,0.00,,,0.00,meteobridge,2013-07-22 16:40:00,
2013-07-22 12:45:00,82.6,71.4,29.82,SE,130,0.9,8.9,69,0.00,,,0.00,meteobridge,2013-07-22 16:45:00,
2013-07-22 12:50:00,82.6,71.8,29.82,WSW,237,0.0,10.1,70,0.00,,,0.00,meteobridge,2013-07-22 16:50:00,
2013-07-22 12:55:00,82.9,72.1,29.82,SE,145,2.0,2.9,70,0.00,,,0.00,meteobridge,2013-07-22 16:55:00,
2013-07-22 13:00:00,82.6,71.4,29.81,SW,215,2.9,6.0,69,0.00,,,0.00,meteobridge,2013-07-22 17:00:00,
2013-07-22 13:05:00,82.2,72.0,29.81,SSW,196,2.0,2.9,71,0.00,,,0.00,meteobridge,2013-07-22 17:05:00,
2013-07-22 13:10:00,82.2,72.0,29.81,SSW,196,0.0,0.0,71,0.00,,,0.00,meteobridge,2013-07-22 17:10:00,
2013-07-22 13:15:00,81.9,71.6,29.80,SE,138,2.0,6.0,71,0.00,,,0.00,meteobridge,2013-07-22 17:15:00,
2013-07-22 13:20:00,81.7,71.8,29.80,SSW,195,0.9,4.0,72,0.00,,,0.00,meteobridge,2013-07-22 17:20:00,
2013-07-22 13:25:00,81.1,71.2,29.80,SSW,203,0.9,6.9,72,0.00,,,0.00,meteobridge,2013-07-22 17:25:00,
2013-07-22 13:30:00,81.1,72.1,29.80,South,186,0.9,0.9,74,0.00,,,0.00,meteobridge,2013-07-22 17:30:00,
2013-07-22 13:35:00,81.0,72.3,29.80,SSE,155,4.0,4.9,75,0.00,,,0.00,meteobridge,2013-07-22 17:35:00,
2013-07-22 13:40:00,80.1,71.8,29.80,SE,145,0.0,2.9,76,0.00,,,0.00,meteobridge,2013-07-22 17:40:00,
2013-07-22 13:45:00,79.9,72.0,29.80,SE,145,0.0,0.0,77,0.00,,,0.00,meteobridge,2013-07-22 17:45:00,
2013-07-22 13:51:00,79.9,72.3,29.80,SE,145,0.0,2.9,78,0.00,,,0.00,meteobridge,2013-07-22 17:51:00,
2013-07-22 13:56:00,79.5,72.5,29.80,SE,145,0.0,2.9,79,0.00,,,0.00,meteobridge,2013-07-22 17:56:00,
2013-07-22 14:01:00,79.5,72.5,29.79,SE,145,2.9,2.9,79,0.00,,,0.00,meteobridge,2013-07-22 18:01:00,
2013-07-22 14:06:00,79.5,72.5,29.79,WSW,241,0.0,4.9,79,0.00,,,0.00,meteobridge,2013-07-22 18:06:00,
2013-07-22 14:16:00,79.9,73.2,29.79,WSW,241,0.0,0.0,80,0.00,,,0.00,meteobridge,2013-07-22 18:16:00,
2013-07-22 14:21:00,79.9,73.6,29.79,WSW,254,2.0,2.9,81,0.00,,,0.00,meteobridge,2013-07-22 18:21:00,
2013-07-22 14:31:00,74.8,70.0,29.81,West,268,2.9,10.1,85,0.07,,,0.07,meteobridge,2013-07-22 18:31:00,
2013-07-22 14:41:00,72.7,69.6,29.81,West,260,4.9,6.9,90,0.22,,,0.22,meteobridge,2013-07-22 18:41:00,
2013-07-22 14:56:00,71.4,69.6,29.79,West,265,2.9,2.9,94,0.36,,,0.36,meteobridge,2013-07-22 18:56:00,
2013-07-22 15:01:00,71.2,69.8,29.81,West,267,0.0,0.9,95,0.37,,,0.37,meteobridge,2013-07-22 19:01:00,
2013-07-22 15:06:00,71.2,69.8,29.81,West,267,0.0,0.9,95,0.38,,,0.38,meteobridge,2013-07-22 19:06:00,
2013-07-22 15:11:00,71.1,69.6,29.81,West,267,0.0,0.9,95,0.47,,,0.47,meteobridge,2013-07-22 19:11:00,
2013-07-22 15:16:00,71.2,70.0,29.82,West,268,0.0,0.0,96,0.57,,,0.57,meteobridge,2013-07-22 19:16:00,
2013-07-22 15:21:00,71.2,70.0,29.82,West,268,0.9,2.9,96,0.59,,,0.59,meteobridge,2013-07-22 19:21:00,
2013-07-22 15:27:00,71.1,69.8,29.82,West,275,0.0,0.0,96,0.56,,,0.61,meteobridge,2013-07-22 19:27:00,
2013-07-22 15:32:00,71.2,70.0,29.81,West,275,0.0,0.0,96,0.54,,,0.62,meteobridge,2013-07-22 19:32:00,
2013-07-22 15:37:00,71.4,70.5,29.81,West,275,0.0,0.0,97,0.44,,,0.62,meteobridge,2013-07-22 19:37:00,
2013-07-22 15:42:00,71.4,70.5,29.81,West,275,0.0,0.9,97,0.39,,,0.63,meteobridge,2013-07-22 19:42:00,
2013-07-22 15:47:00,71.4,70.5,29.80,West,275,0.0,0.0,97,0.33,,,0.64,meteobridge,2013-07-22 19:47:00,
2013-07-22 15:53:00,71.6,70.7,29.80,West,275,0.0,0.0,97,0.30,,,0.65,meteobridge,2013-07-22 19:53:00,
2013-07-22 15:58:00,71.8,70.9,29.80,West,275,0.0,0.0,97,0.30,,,0.66,meteobridge,2013-07-22 19:58:00,
2013-07-22 16:04:00,71.8,70.9,29.80,West,275,0.0,0.0,97,0.30,,,0.67,meteobridge,2013-07-22 20:04:00,
2013-07-22 16:09:00,72.0,71.1,29.80,West,275,0.0,0.0,97,0.28,,,0.67,meteobridge,2013-07-22 20:09:00,
2013-07-22 16:14:00,72.0,71.1,29.80,West,275,0.0,0.0,97,0.13,,,0.68,meteobridge,2013-07-22 20:14:00,
2013-07-22 16:19:00,72.3,71.8,29.80,West,275,0.0,0.0,98,0.09,,,0.68,meteobridge,2013-07-22 20:19:00,
2013-07-22 16:24:00,72.3,71.4,29.80,West,275,0.0,0.9,97,0.09,,,0.68,meteobridge,2013-07-22 20:24:00,
2013-07-22 16:29:00,72.5,71.6,29.79,West,275,0.0,0.0,97,0.06,,,0.68,meteobridge,2013-07-22 20:29:00,
2013-07-22 16:34:00,72.3,71.4,29.79,West,275,0.0,0.0,97,0.06,,,0.68,meteobridge,2013-07-22 20:34:00,
2013-07-22 16:39:00,72.5,71.6,29.79,West,275,0.0,0.0,97,0.06,,,0.69,meteobridge,2013-07-22 20:39:00,
2013-07-22 16:44:00,72.5,71.6,29.79,West,275,0.0,0.0,97,0.07,,,0.70,meteobridge,2013-07-22 20:44:00,
2013-07-22 16:49:00,72.3,71.4,29.79,West,274,0.9,2.9,97,0.07,,,0.71,meteobridge,2013-07-22 20:49:00,
2013-07-22 16:54:00,72.3,71.4,29.79,South,174,2.0,2.0,97,0.10,,,0.75,meteobridge,2013-07-22 20:54:00,
2013-07-22 17:00:00,72.3,71.4,29.79,South,174,0.0,0.0,97,0.11,,,0.77,meteobridge,2013-07-22 21:00:00,
2013-07-22 17:05:00,72.1,71.2,29.79,South,174,0.0,0.0,97,0.10,,,0.77,meteobridge,2013-07-22 21:05:00,
2013-07-22 17:10:00,72.1,71.2,29.79,South,174,0.0,0.0,97,0.11,,,0.78,meteobridge,2013-07-22 21:10:00,
2013-07-22 17:15:00,72.1,71.2,29.78,South,174,0.0,0.0,97,0.10,,,0.78,meteobridge,2013-07-22 21:15:00,
2013-07-22 17:21:00,72.3,71.4,29.78,South,174,0.0,0.0,97,0.10,,,0.78,meteobridge,2013-07-22 21:21:00,
2013-07-22 17:26:00,72.1,71.2,29.78,South,174,0.0,0.0,97,0.10,,,0.78,meteobridge,2013-07-22 21:26:00,
2013-07-22 17:31:00,72.1,71.2,29.77,South,174,0.0,0.0,97,0.10,,,0.78,meteobridge,2013-07-22 21:31:00,
2013-07-22 17:36:00,72.1,71.2,29.77,South,174,0.0,0.0,97,0.10,,,0.78,meteobridge,2013-07-22 21:36:00,
2013-07-22 17:41:00,72.0,71.1,29.77,South,174,0.0,0.0,97,0.08,,,0.78,meteobridge,2013-07-22 21:41:00,
2013-07-22 17:46:00,72.0,71.1,29.77,South,174,0.0,0.0,97,0.08,,,0.79,meteobridge,2013-07-22 21:46:00,
2013-07-22 17:51:00,72.1,71.2,29.77,South,174,0.0,0.0,97,0.07,,,0.79,meteobridge,2013-07-22 21:51:00,
2013-07-22 17:56:00,72.1,71.2,29.77,South,174,0.0,0.0,97,0.04,,,0.80,meteobridge,2013-07-22 21:56:00,
2013-07-22 18:02:00,72.3,71.4,29.76,South,174,0.0,0.0,97,0.04,,,0.81,meteobridge,2013-07-22 22:02:00,
2013-07-22 18:07:00,72.3,71.4,29.76,South,174,0.0,0.0,97,0.05,,,0.82,meteobridge,2013-07-22 22:07:00,
2013-07-22 18:12:00,72.3,71.4,29.76,South,174,0.0,0.0,97,0.04,,,0.82,meteobridge,2013-07-22 22:12:00,
2013-07-22 18:17:00,72.3,71.4,29.76,South,174,0.0,0.0,97,0.04,,,0.82,meteobridge,2013-07-22 22:17:00,
2013-07-22 18:22:00,72.5,71.6,29.76,South,174,0.0,0.0,97,0.04,,,0.82,meteobridge,2013-07-22 22:22:00,
2013-07-22 18:27:00,72.7,71.8,29.76,South,174,0.0,0.0,97,0.04,,,0.82,meteobridge,2013-07-22 22:27:00,
2013-07-22 18:32:00,72.7,71.8,29.76,South,174,0.0,0.9,97,0.04,,,0.82,meteobridge,2013-07-22 22:32:00,
2013-07-22 18:38:00,72.9,72.0,29.76,South,174,0.0,0.0,97,0.04,,,0.82,meteobridge,2013-07-22 22:38:00,
2013-07-22 18:43:00,73.0,72.1,29.76,South,174,0.0,2.0,97,0.04,,,0.82,meteobridge,2013-07-22 22:43:00,
2013-07-22 18:48:00,73.0,72.1,29.76,South,174,0.9,2.0,97,0.03,,,0.82,meteobridge,2013-07-22 22:48:00,
2013-07-22 18:53:00,73.0,72.1,29.76,South,174,0.0,0.0,97,0.02,,,0.82,meteobridge,2013-07-22 22:53:00,
2013-07-22 18:58:00,73.0,72.1,29.76,South,174,0.0,0.0,97,0.01,,,0.82,meteobridge,2013-07-22 22:58:00,
2013-07-22 19:04:00,73.2,72.3,29.76,South,174,0.0,0.0,97,0.00,,,0.82,meteobridge,2013-07-22 23:04:00,
2013-07-22 19:09:00,73.2,72.0,29.76,South,174,0.0,0.0,96,0.00,,,0.82,meteobridge,2013-07-22 23:09:00,
2013-07-22 19:14:00,73.6,72.3,29.75,South,174,0.0,0.0,96,0.00,,,0.82,meteobridge,2013-07-22 23:14:00,
2013-07-22 19:19:00,73.2,72.0,29.75,South,174,0.0,0.0,96,0.00,,,0.82,meteobridge,2013-07-22 23:19:00,
2013-07-22 19:24:00,73.2,72.0,29.75,South,174,0.0,0.0,96,0.00,,,0.82,meteobridge,2013-07-22 23:24:00,
2013-07-22 19:29:00,73.2,71.8,29.75,South,174,0.0,0.0,95,0.00,,,0.82,meteobridge,2013-07-22 23:29:00,
2013-07-22 19:35:00,73.2,71.8,29.75,South,174,0.0,0.0,95,0.00,,,0.82,meteobridge,2013-07-22 23:35:00,
2013-07-22 19:40:00,73.2,71.8,29.75,South,174,0.0,0.0,95,0.00,,,0.82,meteobridge,2013-07-22 23:40:00,
2013-07-22 19:45:00,73.2,71.8,29.75,South,174,0.0,0.0,95,0.00,,,0.82,meteobridge,2013-07-22 23:45:00,
2013-07-22 19:50:00,73.2,71.4,29.75,South,174,0.0,0.0,94,0.00,,,0.82,meteobridge,2013-07-22 23:50:00,
2013-07-22 19:55:00,73.2,71.4,29.75,South,174,0.0,0.0,94,0.00,,,0.82,meteobridge,2013-07-22 23:55:00,
2013-07-22 20:00:00,73.2,71.4,29.75,South,174,0.0,0.9,94,0.00,,,0.00,meteobridge,2013-07-23 00:00:00,
2013-07-22 20:06:00,73.2,71.4,29.75,South,174,0.0,2.0,94,0.00,,,0.00,meteobridge,2013-07-23 00:06:00,
2013-07-22 20:11:00,73.2,71.4,29.75,South,174,0.9,2.0,94,0.00,,,0.00,meteobridge,2013-07-23 00:11:00,
2013-07-22 20:16:00,73.2,71.8,29.75,South,174,0.0,0.0,95,0.00,,,0.00,meteobridge,2013-07-23 00:16:00,
2013-07-22 20:21:00,73.0,71.6,29.75,South,174,0.0,0.0,95,0.00,,,0.00,meteobridge,2013-07-23 00:21:00,
2013-07-22 20:26:00,73.0,71.6,29.75,South,174,0.0,0.0,95,0.00,,,0.00,meteobridge,2013-07-23 00:26:00,
2013-07-22 20:31:00,73.0,71.6,29.76,South,174,0.0,0.0,95,0.00,,,0.00,meteobridge,2013-07-23 00:31:00,
2013-07-22 20:37:00,73.0,71.6,29.76,South,174,0.0,0.0,95,0.00,,,0.00,meteobridge,2013-07-23 00:37:00,
2013-07-22 20:42:00,72.9,71.6,29.76,South,174,0.0,0.0,96,0.00,,,0.00,meteobridge,2013-07-23 00:42:00,
2013-07-22 20:47:00,72.7,71.4,29.75,South,174,0.0,0.0,96,0.00,,,0.00,meteobridge,2013-07-23 00:47:00,
2013-07-22 20:52:00,72.5,71.2,29.75,South,174,0.0,0.0,96,0.00,,,0.00,meteobridge,2013-07-23 00:52:00,
2013-07-22 20:57:00,72.5,71.2,29.75,South,174,0.0,0.0,96,0.00,,,0.00,meteobridge,2013-07-23 00:57:00,
2013-07-22 21:02:00,72.3,71.1,29.76,South,174,0.0,0.0,96,0.00,,,0.00,meteobridge,2013-07-23 01:02:00,
2013-07-22 21:08:00,72.3,71.1,29.76,South,174,0.0,0.0,96,0.00,,,0.00,meteobridge,2013-07-23 01:08:00,
2013-07-22 21:13:00,72.1,70.9,29.76,South,174,0.0,0.0,96,0.00,,,0.00,meteobridge,2013-07-23 01:13:00,
2013-07-22 21:18:00,72.1,70.9,29.76,South,174,0.0,0.0,96,0.00,,,0.00,meteobridge,2013-07-23 01:18:00,
2013-07-22 21:23:00,72.1,71.2,29.76,South,174,0.0,0.0,97,0.00,,,0.00,meteobridge,2013-07-23 01:23:00,
2013-07-22 21:28:00,72.1,71.2,29.76,South,174,0.0,0.0,97,0.00,,,0.00,meteobridge,2013-07-23 01:28:00,
2013-07-22 21:34:00,72.1,71.2,29.77,South,174,0.0,0.0,97,0.00,,,0.00,meteobridge,2013-07-23 01:34:00,
2013-07-22 21:39:00,72.1,71.2,29.77,South,174,0.0,0.0,97,0.00,,,0.00,meteobridge,2013-07-23 01:39:00,
2013-07-22 21:44:00,72.1,71.2,29.77,South,174,0.0,0.0,97,0.00,,,0.00,meteobridge,2013-07-23 01:44:00,
2013-07-22 21:49:00,72.0,71.1,29.77,South,174,0.0,0.0,97,0.00,,,0.00,meteobridge,2013-07-23 01:49:00,
2013-07-22 21:54:00,71.8,70.9,29.77,South,174,0.0,0.0,97,0.00,,,0.00,meteobridge,2013-07-23 01:54:00,
2013-07-22 21:59:00,71.6,70.7,29.77,South,174,0.0,0.0,97,0.00,,,0.00,meteobridge,2013-07-23 01:59:00,
2013-07-22 22:04:00,71.6,71.1,29.77,South,174,0.0,0.0,98,0.00,,,0.00,meteobridge,2013-07-23 02:04:00,
2013-07-22 22:10:00,71.4,70.9,29.77,South,174,0.0,0.0,98,0.00,,,0.00,meteobridge,2013-07-23 02:10:00,
2013-07-22 22:15:00,71.4,70.9,29.77,South,174,0.0,0.0,98,0.00,,,0.00,meteobridge,2013-07-23 02:15:00,
2013-07-22 22:20:00,71.2,70.7,29.77,South,174,0.0,0.0,98,0.00,,,0.00,meteobridge,2013-07-23 02:20:00,
2013-07-22 22:25:00,71.2,70.7,29.77,South,174,0.0,0.0,98,0.00,,,0.00,meteobridge,2013-07-23 02:25:00,
2013-07-22 22:30:00,71.2,70.7,29.78,South,174,0.0,0.0,98,0.00,,,0.00,meteobridge,2013-07-23 02:30:00,
2013-07-22 22:35:00,71.1,70.5,29.78,South,174,0.0,0.0,98,0.00,,,0.00,meteobridge,2013-07-23 02:35:00,
2013-07-22 22:40:00,71.1,70.5,29.78,South,174,0.0,0.0,98,0.00,,,0.00,meteobridge,2013-07-23 02:40:00,
2013-07-22 22:46:00,71.1,70.5,29.78,South,174,0.0,0.0,98,0.00,,,0.00,meteobridge,2013-07-23 02:46:00,
2013-07-22 22:51:00,70.9,70.3,29.78,South,174,0.0,0.0,98,0.00,,,0.00,meteobridge,2013-07-23 02:51:00,
2013-07-22 22:56:00,70.9,70.3,29.78,South,174,0.0,0.0,98,0.00,,,0.00,meteobridge,2013-07-23 02:56:00,
2013-07-22 23:01:00,70.9,70.3,29.78,South,174,0.0,0.0,98,0.00,,,0.00,meteobridge,2013-07-23 03:01:00,
2013-07-22 23:07:00,70.9,70.3,29.78,South,174,0.0,0.0,98,0.00,,,0.00,meteobridge,2013-07-23 03:07:00,
2013-07-22 23:12:00,70.9,70.3,29.78,South,174,0.0,0.0,98,0.00,,,0.00,meteobridge,2013-07-23 03:12:00,
2013-07-22 23:17:00,70.9,70.3,29.78,South,174,0.0,0.0,98,0.00,,,0.00,meteobridge,2013-07-23 03:17:00,
2013-07-22 23:22:00,70.9,70.3,29.78,South,174,0.0,0.0,98,0.00,,,0.00,meteobridge,2013-07-23 03:22:00,
2013-07-22 23:27:00,70.9,70.3,29.78,South,174,0.0,0.0,98,0.00,,,0.00,meteobridge,2013-07-23 03:27:00,
2013-07-22 23:33:00,70.9,70.3,29.78,South,174,0.0,0.0,98,0.00,,,0.00,meteobridge,2013-07-23 03:33:00,
2013-07-22 23:38:00,70.9,70.3,29.78,South,174,0.0,0.0,98,0.00,,,0.00,meteobridge,2013-07-23 03:38:00,
2013-07-22 23:43:00,70.9,70.3,29.78,South,174,0.0,0.9,98,0.00,,,0.00,meteobridge,2013-07-23 03:43:00,
2013-07-22 23:48:00,70.9,70.3,29.78,South,174,0.0,0.0,98,0.00,,,0.00,meteobridge,2013-07-23 03:48:00,
2013-07-22 23:53:00,70.9,70.3,29.78,South,174,0.0,0.0,98,0.00,,,0.00,meteobridge,2013-07-23 03:53:00,
2013-07-22 23:58:00,70.9,70.3,29.78,South,174,0.0,0.0,98,0.00,,,0.00,meteobridge,2013-07-23 03:58:00,